sensor_id;sensor_type;location;lat;lon;timestamp;P1;durP1;ratioP1;P2;durP2;ratioP2
70385;SDS011;57804;55.650;37.500;2022-07-10T00:01:28;10.80;;;6.10;;
70385;SDS011;57804;55.650;37.500;2022-07-10T00:03:54;12.30;;;6.38;;
70385;SDS011;57804;55.650;37.500;2022-07-10T00:06:20;11.90;;;6.80;;
70385;SDS011;57804;55.650;37.500;2022-07-10T00:08:47;11.27;;;5.65;;
70385;SDS011;57804;55.650;37.500;2022-07-10T00:11:13;11.30;;;6.22;;
70385;SDS011;57804;55.650;37.500;2022-07-10T00:13:39;11.25;;;6.93;;
70385;SDS011;57804;55.650;37.500;2022-07-10T00:16:05;9.80;;;6.03;;
70385;SDS011;57804;55.650;37.500;2022-07-10T00:18:34;11.02;;;6.57;;
70385;SDS011;57804;55.650;37.500;2022-07-10T00:21:00;11.65;;;6.30;;
70385;SDS011;57804;55.650;37.500;2022-07-10T00:23:26;11.25;;;6.70;;
70385;SDS011;57804;55.650;37.500;2022-07-10T00:25:52;10.88;;;6.90;;
70385;SDS011;57804;55.650;37.500;2022-07-10T00:28:20;11.38;;;6.28;;
70385;SDS011;57804;55.650;37.500;2022-07-10T00:30:46;10.80;;;6.38;;
70385;SDS011;57804;55.650;37.500;2022-07-10T00:33:12;11.23;;;6.43;;
70385;SDS011;57804;55.650;37.500;2022-07-10T00:35:37;11.55;;;6.25;;
70385;SDS011;57804;55.650;37.500;2022-07-10T00:38:04;12.63;;;6.45;;
70385;SDS011;57804;55.650;37.500;2022-07-10T00:40:30;11.95;;;6.68;;
70385;SDS011;57804;55.650;37.500;2022-07-10T00:42:56;10.60;;;5.90;;
70385;SDS011;57804;55.650;37.500;2022-07-10T00:45:21;11.18;;;6.15;;
70385;SDS011;57804;55.650;37.500;2022-07-10T00:47:48;10.60;;;5.90;;
70385;SDS011;57804;55.650;37.500;2022-07-10T00:50:13;10.18;;;5.90;;
70385;SDS011;57804;55.650;37.500;2022-07-10T00:52:40;10.50;;;5.85;;
70385;SDS011;57804;55.650;37.500;2022-07-10T00:55:07;10.10;;;5.70;;
70385;SDS011;57804;55.650;37.500;2022-07-10T00:57:34;11.45;;;6.03;;
70385;SDS011;57804;55.650;37.500;2022-07-10T01:00:01;10.35;;;6.00;;
70385;SDS011;57804;55.650;37.500;2022-07-10T01:02:27;12.25;;;6.00;;
70385;SDS011;57804;55.650;37.500;2022-07-10T01:04:53;12.30;;;5.88;;
70385;SDS011;57804;55.650;37.500;2022-07-10T01:07:19;10.77;;;5.90;;
70385;SDS011;57804;55.650;37.500;2022-07-10T01:09:45;9.98;;;5.38;;
70385;SDS011;57804;55.650;37.500;2022-07-10T01:12:11;10.70;;;6.15;;
70385;SDS011;57804;55.650;37.500;2022-07-10T01:14:38;11.13;;;5.60;;
70385;SDS011;57804;55.650;37.500;2022-07-10T01:17:06;9.48;;;5.35;;
70385;SDS011;57804;55.650;37.500;2022-07-10T01:19:33;10.07;;;5.45;;
70385;SDS011;57804;55.650;37.500;2022-07-10T01:21:59;9.98;;;5.40;;
70385;SDS011;57804;55.650;37.500;2022-07-10T01:24:25;12.75;;;6.18;;
70385;SDS011;57804;55.650;37.500;2022-07-10T01:26:51;12.15;;;5.53;;
70385;SDS011;57804;55.650;37.500;2022-07-10T01:29:17;11.23;;;6.28;;
70385;SDS011;57804;55.650;37.500;2022-07-10T01:31:43;10.38;;;5.85;;
70385;SDS011;57804;55.650;37.500;2022-07-10T01:34:10;9.55;;;5.28;;
70385;SDS011;57804;55.650;37.500;2022-07-10T01:36:37;10.25;;;5.40;;
70385;SDS011;57804;55.650;37.500;2022-07-10T01:39:07;9.77;;;5.22;;
70385;SDS011;57804;55.650;37.500;2022-07-10T01:41:33;9.45;;;5.25;;
70385;SDS011;57804;55.650;37.500;2022-07-10T01:43:59;10.38;;;5.20;;
70385;SDS011;57804;55.650;37.500;2022-07-10T01:46:25;9.48;;;5.07;;
70385;SDS011;57804;55.650;37.500;2022-07-10T01:48:51;7.82;;;4.70;;
70385;SDS011;57804;55.650;37.500;2022-07-10T01:51:18;9.27;;;5.35;;
70385;SDS011;57804;55.650;37.500;2022-07-10T01:53:44;10.82;;;5.18;;
70385;SDS011;57804;55.650;37.500;2022-07-10T01:56:11;10.95;;;5.50;;
70385;SDS011;57804;55.650;37.500;2022-07-10T01:58:37;9.95;;;4.95;;
70385;SDS011;57804;55.650;37.500;2022-07-10T02:01:04;9.15;;;5.22;;
70385;SDS011;57804;55.650;37.500;2022-07-10T02:03:33;10.40;;;5.60;;
70385;SDS011;57804;55.650;37.500;2022-07-10T02:06:17;9.32;;;4.90;;
70385;SDS011;57804;55.650;37.500;2022-07-10T02:08:43;10.20;;;5.20;;
70385;SDS011;57804;55.650;37.500;2022-07-10T02:11:09;9.15;;;4.85;;
70385;SDS011;57804;55.650;37.500;2022-07-10T02:13:35;10.52;;;5.30;;
70385;SDS011;57804;55.650;37.500;2022-07-10T02:16:02;9.68;;;5.30;;
70385;SDS011;57804;55.650;37.500;2022-07-10T02:18:28;9.15;;;5.03;;
70385;SDS011;57804;55.650;37.500;2022-07-10T02:20:54;10.80;;;5.53;;
70385;SDS011;57804;55.650;37.500;2022-07-10T02:23:20;9.18;;;5.40;;
70385;SDS011;57804;55.650;37.500;2022-07-10T02:25:46;10.50;;;5.63;;
70385;SDS011;57804;55.650;37.500;2022-07-10T02:28:12;10.20;;;5.75;;
70385;SDS011;57804;55.650;37.500;2022-07-10T02:30:38;9.80;;;5.70;;
70385;SDS011;57804;55.650;37.500;2022-07-10T02:33:04;11.43;;;5.85;;
70385;SDS011;57804;55.650;37.500;2022-07-10T02:35:30;10.63;;;6.15;;
70385;SDS011;57804;55.650;37.500;2022-07-10T02:37:56;11.93;;;6.03;;
70385;SDS011;57804;55.650;37.500;2022-07-10T02:40:22;10.25;;;5.60;;
70385;SDS011;57804;55.650;37.500;2022-07-10T02:42:48;12.15;;;5.95;;
70385;SDS011;57804;55.650;37.500;2022-07-10T02:45:14;11.50;;;6.30;;
70385;SDS011;57804;55.650;37.500;2022-07-10T02:47:40;12.00;;;6.25;;
70385;SDS011;57804;55.650;37.500;2022-07-10T02:50:07;10.30;;;6.03;;
70385;SDS011;57804;55.650;37.500;2022-07-10T02:52:33;12.38;;;6.60;;
70385;SDS011;57804;55.650;37.500;2022-07-10T02:54:59;10.60;;;5.88;;
70385;SDS011;57804;55.650;37.500;2022-07-10T02:57:25;11.50;;;6.60;;
70385;SDS011;57804;55.650;37.500;2022-07-10T02:59:51;12.68;;;6.38;;
70385;SDS011;57804;55.650;37.500;2022-07-10T03:02:17;12.15;;;6.13;;
70385;SDS011;57804;55.650;37.500;2022-07-10T03:04:43;10.98;;;6.07;;
70385;SDS011;57804;55.650;37.500;2022-07-10T03:07:09;9.70;;;5.68;;
70385;SDS011;57804;55.650;37.500;2022-07-10T03:09:35;12.35;;;6.30;;
70385;SDS011;57804;55.650;37.500;2022-07-10T03:12:01;13.27;;;5.78;;
70385;SDS011;57804;55.650;37.500;2022-07-10T03:14:27;9.88;;;5.72;;
70385;SDS011;57804;55.650;37.500;2022-07-10T03:16:53;11.70;;;5.93;;
70385;SDS011;57804;55.650;37.500;2022-07-10T03:19:22;11.23;;;5.05;;
70385;SDS011;57804;55.650;37.500;2022-07-10T03:21:49;10.80;;;5.80;;
70385;SDS011;57804;55.650;37.500;2022-07-10T03:24:15;11.00;;;5.30;;
70385;SDS011;57804;55.650;37.500;2022-07-10T03:26:41;11.48;;;5.32;;
70385;SDS011;57804;55.650;37.500;2022-07-10T03:29:08;13.55;;;5.32;;
70385;SDS011;57804;55.650;37.500;2022-07-10T03:31:34;10.52;;;5.50;;
70385;SDS011;57804;55.650;37.500;2022-07-10T03:34:00;11.57;;;5.75;;
70385;SDS011;57804;55.650;37.500;2022-07-10T03:36:29;9.60;;;5.80;;
70385;SDS011;57804;55.650;37.500;2022-07-10T03:38:55;10.27;;;5.50;;
70385;SDS011;57804;55.650;37.500;2022-07-10T03:41:21;11.07;;;5.63;;
70385;SDS011;57804;55.650;37.500;2022-07-10T03:43:46;9.52;;;5.43;;
70385;SDS011;57804;55.650;37.500;2022-07-10T03:46:13;9.68;;;4.80;;
70385;SDS011;57804;55.650;37.500;2022-07-10T03:48:38;10.00;;;5.53;;
70385;SDS011;57804;55.650;37.500;2022-07-10T03:51:08;10.95;;;5.68;;
70385;SDS011;57804;55.650;37.500;2022-07-10T03:53:34;11.23;;;5.50;;
70385;SDS011;57804;55.650;37.500;2022-07-10T03:56:00;9.57;;;5.75;;
70385;SDS011;57804;55.650;37.500;2022-07-10T03:58:26;10.52;;;5.45;;
70385;SDS011;57804;55.650;37.500;2022-07-10T04:00:52;10.43;;;6.13;;
70385;SDS011;57804;55.650;37.500;2022-07-10T04:03:18;9.95;;;5.72;;
70385;SDS011;57804;55.650;37.500;2022-07-10T04:05:44;13.98;;;5.72;;
70385;SDS011;57804;55.650;37.500;2022-07-10T04:08:10;11.95;;;6.00;;
70385;SDS011;57804;55.650;37.500;2022-07-10T04:10:36;9.88;;;5.85;;
70385;SDS011;57804;55.650;37.500;2022-07-10T04:13:02;11.10;;;6.00;;
70385;SDS011;57804;55.650;37.500;2022-07-10T04:15:28;12.55;;;6.30;;
70385;SDS011;57804;55.650;37.500;2022-07-10T04:17:54;11.15;;;5.82;;
70385;SDS011;57804;55.650;37.500;2022-07-10T04:20:20;10.13;;;5.93;;
70385;SDS011;57804;55.650;37.500;2022-07-10T04:22:47;12.32;;;6.20;;
70385;SDS011;57804;55.650;37.500;2022-07-10T04:25:13;13.20;;;6.32;;
70385;SDS011;57804;55.650;37.500;2022-07-10T04:27:39;9.90;;;5.95;;
70385;SDS011;57804;55.650;37.500;2022-07-10T04:30:05;12.30;;;6.28;;
70385;SDS011;57804;55.650;37.500;2022-07-10T04:32:32;12.23;;;6.60;;
70385;SDS011;57804;55.650;37.500;2022-07-10T04:34:58;11.15;;;6.18;;
70385;SDS011;57804;55.650;37.500;2022-07-10T04:37:24;11.63;;;6.50;;
70385;SDS011;57804;55.650;37.500;2022-07-10T04:39:50;12.85;;;6.70;;
70385;SDS011;57804;55.650;37.500;2022-07-10T04:42:16;11.05;;;6.22;;
70385;SDS011;57804;55.650;37.500;2022-07-10T04:44:42;12.50;;;6.88;;
70385;SDS011;57804;55.650;37.500;2022-07-10T04:47:08;11.23;;;6.85;;
70385;SDS011;57804;55.650;37.500;2022-07-10T04:49:34;13.00;;;6.72;;
70385;SDS011;57804;55.650;37.500;2022-07-10T04:52:00;14.43;;;7.60;;
70385;SDS011;57804;55.650;37.500;2022-07-10T04:54:27;11.73;;;7.00;;
70385;SDS011;57804;55.650;37.500;2022-07-10T04:56:52;15.25;;;7.20;;
70385;SDS011;57804;55.650;37.500;2022-07-10T04:59:19;14.13;;;7.30;;
70385;SDS011;57804;55.650;37.500;2022-07-10T05:01:45;13.82;;;7.25;;
70385;SDS011;57804;55.650;37.500;2022-07-10T05:04:11;16.20;;;7.95;;
70385;SDS011;57804;55.650;37.500;2022-07-10T05:06:37;11.13;;;7.28;;
70385;SDS011;57804;55.650;37.500;2022-07-10T05:09:03;15.02;;;7.82;;
70385;SDS011;57804;55.650;37.500;2022-07-10T05:11:29;18.05;;;8.57;;
70385;SDS011;57804;55.650;37.500;2022-07-10T05:13:57;15.20;;;8.13;;
70385;SDS011;57804;55.650;37.500;2022-07-10T05:16:23;18.88;;;8.00;;
70385;SDS011;57804;55.650;37.500;2022-07-10T05:18:49;15.10;;;7.80;;
70385;SDS011;57804;55.650;37.500;2022-07-10T05:21:15;18.98;;;8.48;;
70385;SDS011;57804;55.650;37.500;2022-07-10T05:23:41;16.38;;;8.25;;
70385;SDS011;57804;55.650;37.500;2022-07-10T05:26:08;14.60;;;9.30;;
70385;SDS011;57804;55.650;37.500;2022-07-10T05:28:34;15.40;;;7.93;;
70385;SDS011;57804;55.650;37.500;2022-07-10T05:31:00;16.48;;;8.57;;
70385;SDS011;57804;55.650;37.500;2022-07-10T05:33:26;12.65;;;7.95;;
70385;SDS011;57804;55.650;37.500;2022-07-10T05:35:55;16.35;;;8.77;;
70385;SDS011;57804;55.650;37.500;2022-07-10T05:38:21;13.88;;;8.38;;
70385;SDS011;57804;55.650;37.500;2022-07-10T05:40:47;16.60;;;8.98;;
70385;SDS011;57804;55.650;37.500;2022-07-10T05:43:14;16.30;;;8.77;;
70385;SDS011;57804;55.650;37.500;2022-07-10T05:45:40;15.05;;;8.23;;
70385;SDS011;57804;55.650;37.500;2022-07-10T05:48:06;15.98;;;8.60;;
70385;SDS011;57804;55.650;37.500;2022-07-10T05:50:32;18.40;;;9.02;;
70385;SDS011;57804;55.650;37.500;2022-07-10T05:52:58;15.45;;;8.98;;
70385;SDS011;57804;55.650;37.500;2022-07-10T05:55:24;17.13;;;9.30;;
70385;SDS011;57804;55.650;37.500;2022-07-10T05:57:50;16.50;;;8.80;;
70385;SDS011;57804;55.650;37.500;2022-07-10T06:00:16;15.63;;;9.27;;
70385;SDS011;57804;55.650;37.500;2022-07-10T06:02:42;14.68;;;8.88;;
70385;SDS011;57804;55.650;37.500;2022-07-10T06:05:08;15.02;;;8.68;;
70385;SDS011;57804;55.650;37.500;2022-07-10T06:07:35;15.82;;;8.52;;
70385;SDS011;57804;55.650;37.500;2022-07-10T06:10:02;15.23;;;9.38;;
70385;SDS011;57804;55.650;37.500;2022-07-10T06:12:28;15.27;;;9.13;;
70385;SDS011;57804;55.650;37.500;2022-07-10T06:14:54;14.30;;;8.77;;
70385;SDS011;57804;55.650;37.500;2022-07-10T06:17:20;17.83;;;9.30;;
70385;SDS011;57804;55.650;37.500;2022-07-10T06:19:46;14.75;;;9.80;;
70385;SDS011;57804;55.650;37.500;2022-07-10T06:22:12;19.55;;;9.35;;
70385;SDS011;57804;55.650;37.500;2022-07-10T06:24:57;16.60;;;9.27;;
70385;SDS011;57804;55.650;37.500;2022-07-10T06:27:23;15.75;;;9.60;;
70385;SDS011;57804;55.650;37.500;2022-07-10T06:29:52;14.80;;;9.13;;
70385;SDS011;57804;55.650;37.500;2022-07-10T06:32:18;16.92;;;9.40;;
70385;SDS011;57804;55.650;37.500;2022-07-10T06:34:44;15.48;;;9.80;;
70385;SDS011;57804;55.650;37.500;2022-07-10T06:37:10;15.88;;;9.45;;
70385;SDS011;57804;55.650;37.500;2022-07-10T06:39:36;16.40;;;10.07;;
70385;SDS011;57804;55.650;37.500;2022-07-10T06:42:11;14.00;;;9.23;;
70385;SDS011;57804;55.650;37.500;2022-07-10T06:44:40;15.30;;;8.95;;
70385;SDS011;57804;55.650;37.500;2022-07-10T06:47:06;13.52;;;9.35;;
70385;SDS011;57804;55.650;37.500;2022-07-10T06:49:51;14.82;;;10.13;;
70385;SDS011;57804;55.650;37.500;2022-07-10T06:52:18;15.55;;;10.05;;
70385;SDS011;57804;55.650;37.500;2022-07-10T06:54:44;15.85;;;10.30;;
70385;SDS011;57804;55.650;37.500;2022-07-10T06:57:10;15.95;;;10.55;;
70385;SDS011;57804;55.650;37.500;2022-07-10T06:59:36;15.68;;;10.07;;
70385;SDS011;57804;55.650;37.500;2022-07-10T07:02:02;15.20;;;10.18;;
70385;SDS011;57804;55.650;37.500;2022-07-10T07:04:28;15.95;;;10.45;;
70385;SDS011;57804;55.650;37.500;2022-07-10T07:06:54;16.52;;;10.00;;
70385;SDS011;57804;55.650;37.500;2022-07-10T07:09:20;15.88;;;10.50;;
70385;SDS011;57804;55.650;37.500;2022-07-10T07:11:46;15.13;;;10.57;;
70385;SDS011;57804;55.650;37.500;2022-07-10T07:14:13;15.90;;;10.63;;
70385;SDS011;57804;55.650;37.500;2022-07-10T07:16:39;16.35;;;9.73;;
70385;SDS011;57804;55.650;37.500;2022-07-10T07:19:09;18.45;;;11.23;;
70385;SDS011;57804;55.650;37.500;2022-07-10T07:21:43;16.52;;;10.60;;
70385;SDS011;57804;55.650;37.500;2022-07-10T07:24:28;15.98;;;11.43;;
70385;SDS011;57804;55.650;37.500;2022-07-10T07:26:54;18.75;;;11.68;;
70385;SDS011;57804;55.650;37.500;2022-07-10T07:29:20;14.80;;;10.98;;
70385;SDS011;57804;55.650;37.500;2022-07-10T07:31:46;15.10;;;10.40;;
70385;SDS011;57804;55.650;37.500;2022-07-10T07:34:12;16.23;;;10.52;;
70385;SDS011;57804;55.650;37.500;2022-07-10T07:36:39;15.98;;;11.18;;
70385;SDS011;57804;55.650;37.500;2022-07-10T07:39:05;16.60;;;10.60;;
70385;SDS011;57804;55.650;37.500;2022-07-10T07:41:31;15.90;;;11.40;;
70385;SDS011;57804;55.650;37.500;2022-07-10T07:43:58;16.52;;;10.73;;
70385;SDS011;57804;55.650;37.500;2022-07-10T07:46:23;14.52;;;10.30;;
70385;SDS011;57804;55.650;37.500;2022-07-10T07:48:50;15.82;;;11.07;;
70385;SDS011;57804;55.650;37.500;2022-07-10T07:51:16;14.95;;;10.07;;
70385;SDS011;57804;55.650;37.500;2022-07-10T07:53:42;16.77;;;10.95;;
70385;SDS011;57804;55.650;37.500;2022-07-10T07:56:08;16.42;;;11.18;;
70385;SDS011;57804;55.650;37.500;2022-07-10T07:58:34;16.10;;;10.35;;
70385;SDS011;57804;55.650;37.500;2022-07-10T08:01:00;16.10;;;10.48;;
70385;SDS011;57804;55.650;37.500;2022-07-10T08:03:26;14.75;;;9.90;;
70385;SDS011;57804;55.650;37.500;2022-07-10T08:05:52;15.13;;;9.82;;
70385;SDS011;57804;55.650;37.500;2022-07-10T08:08:18;15.90;;;10.07;;
70385;SDS011;57804;55.650;37.500;2022-07-10T08:10:44;17.13;;;10.18;;
70385;SDS011;57804;55.650;37.500;2022-07-10T08:13:10;17.23;;;10.32;;
70385;SDS011;57804;55.650;37.500;2022-07-10T08:15:36;15.80;;;10.25;;
70385;SDS011;57804;55.650;37.500;2022-07-10T08:18:02;14.65;;;9.60;;
70385;SDS011;57804;55.650;37.500;2022-07-10T08:20:30;15.27;;;10.10;;
70385;SDS011;57804;55.650;37.500;2022-07-10T08:22:56;14.93;;;10.43;;
70385;SDS011;57804;55.650;37.500;2022-07-10T08:25:22;13.10;;;9.50;;
70385;SDS011;57804;55.650;37.500;2022-07-10T08:27:48;13.48;;;8.95;;
70385;SDS011;57804;55.650;37.500;2022-07-10T08:30:14;13.73;;;8.63;;
70385;SDS011;57804;55.650;37.500;2022-07-10T08:32:41;10.90;;;8.07;;
70385;SDS011;57804;55.650;37.500;2022-07-10T08:35:07;12.95;;;8.25;;
70385;SDS011;57804;55.650;37.500;2022-07-10T08:37:38;14.40;;;8.52;;
70385;SDS011;57804;55.650;37.500;2022-07-10T08:40:10;13.02;;;7.70;;
70385;SDS011;57804;55.650;37.500;2022-07-10T08:42:41;12.98;;;8.20;;
70385;SDS011;57804;55.650;37.500;2022-07-10T08:45:10;12.85;;;8.00;;
70385;SDS011;57804;55.650;37.500;2022-07-10T08:47:37;11.93;;;8.02;;
70385;SDS011;57804;55.650;37.500;2022-07-10T08:52:42;12.30;;;7.85;;
70385;SDS011;57804;55.650;37.500;2022-07-10T08:55:13;11.52;;;7.35;;
70385;SDS011;57804;55.650;37.500;2022-07-10T08:57:40;11.95;;;8.35;;
70385;SDS011;57804;55.650;37.500;2022-07-10T09:00:08;11.50;;;8.02;;
70385;SDS011;57804;55.650;37.500;2022-07-10T09:02:35;11.27;;;7.90;;
70385;SDS011;57804;55.650;37.500;2022-07-10T09:05:01;13.93;;;8.38;;
70385;SDS011;57804;55.650;37.500;2022-07-10T09:07:36;12.95;;;8.25;;
70385;SDS011;57804;55.650;37.500;2022-07-10T09:10:09;10.60;;;7.85;;
70385;SDS011;57804;55.650;37.500;2022-07-10T09:15:17;12.43;;;7.97;;
70385;SDS011;57804;55.650;37.500;2022-07-10T09:17:51;13.85;;;7.70;;
70385;SDS011;57804;55.650;37.500;2022-07-10T09:20:32;11.30;;;7.45;;
70385;SDS011;57804;55.650;37.500;2022-07-10T09:23:00;12.07;;;7.53;;
70385;SDS011;57804;55.650;37.500;2022-07-10T09:25:45;10.98;;;7.40;;
70385;SDS011;57804;55.650;37.500;2022-07-10T09:28:17;11.40;;;7.60;;
70385;SDS011;57804;55.650;37.500;2022-07-10T09:41:12;11.70;;;6.97;;
70385;SDS011;57804;55.650;37.500;2022-07-10T09:46:27;9.52;;;6.43;;
70385;SDS011;57804;55.650;37.500;2022-07-10T09:49:07;9.68;;;6.80;;
70385;SDS011;57804;55.650;37.500;2022-07-10T09:51:35;10.57;;;6.32;;
70385;SDS011;57804;55.650;37.500;2022-07-10T09:54:03;9.27;;;6.03;;
70385;SDS011;57804;55.650;37.500;2022-07-10T09:56:40;10.38;;;6.30;;
70385;SDS011;57804;55.650;37.500;2022-07-10T09:59:08;11.40;;;6.40;;
70385;SDS011;57804;55.650;37.500;2022-07-10T10:01:57;9.25;;;7.20;;
70385;SDS011;57804;55.650;37.500;2022-07-10T10:04:26;8.57;;;5.95;;
70385;SDS011;57804;55.650;37.500;2022-07-10T10:06:58;9.30;;;6.20;;
70385;SDS011;57804;55.650;37.500;2022-07-10T10:09:31;8.73;;;6.00;;
70385;SDS011;57804;55.650;37.500;2022-07-10T10:12:30;8.90;;;5.78;;
70385;SDS011;57804;55.650;37.500;2022-07-10T10:17:40;8.30;;;4.97;;
70385;SDS011;57804;55.650;37.500;2022-07-10T10:20:07;7.75;;;5.20;;
70385;SDS011;57804;55.650;37.500;2022-07-10T10:22:54;10.18;;;5.25;;
70385;SDS011;57804;55.650;37.500;2022-07-10T10:25:23;9.68;;;5.45;;
70385;SDS011;57804;55.650;37.500;2022-07-10T10:27:50;9.80;;;5.22;;
70385;SDS011;57804;55.650;37.500;2022-07-10T10:30:17;8.05;;;4.93;;
70385;SDS011;57804;55.650;37.500;2022-07-10T10:32:44;7.85;;;4.80;;
70385;SDS011;57804;55.650;37.500;2022-07-10T10:35:10;8.75;;;4.75;;
70385;SDS011;57804;55.650;37.500;2022-07-10T10:37:37;8.27;;;4.40;;
70385;SDS011;57804;55.650;37.500;2022-07-10T10:40:05;8.98;;;4.78;;
70385;SDS011;57804;55.650;37.500;2022-07-10T10:48:04;9.75;;;5.90;;
70385;SDS011;57804;55.650;37.500;2022-07-10T10:53:26;6.80;;;4.82;;
70385;SDS011;57804;55.650;37.500;2022-07-10T10:58:27;7.00;;;5.10;;
70385;SDS011;57804;55.650;37.500;2022-07-10T11:01:23;7.70;;;5.10;;
70385;SDS011;57804;55.650;37.500;2022-07-10T11:06:44;7.50;;;5.10;;
70385;SDS011;57804;55.650;37.500;2022-07-10T11:09:33;10.05;;;5.20;;
70385;SDS011;57804;55.650;37.500;2022-07-10T11:14:32;9.23;;;4.97;;
70385;SDS011;57804;55.650;37.500;2022-07-10T11:17:03;7.35;;;5.18;;
70385;SDS011;57804;55.650;37.500;2022-07-10T11:19:31;9.27;;;5.20;;
70385;SDS011;57804;55.650;37.500;2022-07-10T11:30:23;7.55;;;4.80;;
70385;SDS011;57804;55.650;37.500;2022-07-10T11:32:49;8.82;;;5.40;;
70385;SDS011;57804;55.650;37.500;2022-07-10T11:35:16;7.88;;;5.10;;
70385;SDS011;57804;55.650;37.500;2022-07-10T11:37:50;8.30;;;5.20;;
70385;SDS011;57804;55.650;37.500;2022-07-10T11:40:18;8.57;;;5.40;;
70385;SDS011;57804;55.650;37.500;2022-07-10T11:42:48;8.32;;;5.57;;
70385;SDS011;57804;55.650;37.500;2022-07-10T11:45:28;7.63;;;4.80;;
70385;SDS011;57804;55.650;37.500;2022-07-10T11:47:57;8.77;;;4.88;;
70385;SDS011;57804;55.650;37.500;2022-07-10T11:50:24;8.68;;;4.85;;
70385;SDS011;57804;55.650;37.500;2022-07-10T11:52:51;10.63;;;5.82;;
70385;SDS011;57804;55.650;37.500;2022-07-10T11:55:22;8.07;;;5.22;;
70385;SDS011;57804;55.650;37.500;2022-07-10T11:57:49;8.80;;;5.32;;
70385;SDS011;57804;55.650;37.500;2022-07-10T12:00:25;8.15;;;4.97;;
70385;SDS011;57804;55.650;37.500;2022-07-10T12:02:56;8.13;;;4.68;;
70385;SDS011;57804;55.650;37.500;2022-07-10T12:05:40;8.40;;;4.60;;
70385;SDS011;57804;55.650;37.500;2022-07-10T12:08:07;8.25;;;4.72;;
70385;SDS011;57804;55.650;37.500;2022-07-10T12:10:34;8.20;;;5.18;;
70385;SDS011;57804;55.650;37.500;2022-07-10T12:13:07;9.02;;;5.40;;
70385;SDS011;57804;55.650;37.500;2022-07-10T12:15:43;8.80;;;5.55;;
70385;SDS011;57804;55.650;37.500;2022-07-10T12:18:19;7.47;;;5.07;;
70385;SDS011;57804;55.650;37.500;2022-07-10T12:20:47;7.82;;;4.70;;
70385;SDS011;57804;55.650;37.500;2022-07-10T12:23:15;7.60;;;5.07;;
70385;SDS011;57804;55.650;37.500;2022-07-10T12:25:43;7.90;;;4.80;;
70385;SDS011;57804;55.650;37.500;2022-07-10T12:28:14;9.05;;;4.95;;
70385;SDS011;57804;55.650;37.500;2022-07-10T12:30:44;7.20;;;4.75;;
70385;SDS011;57804;55.650;37.500;2022-07-10T12:33:13;7.78;;;4.88;;
70385;SDS011;57804;55.650;37.500;2022-07-10T12:35:49;8.60;;;4.88;;
70385;SDS011;57804;55.650;37.500;2022-07-10T12:38:27;7.03;;;4.63;;
70385;SDS011;57804;55.650;37.500;2022-07-10T12:41:07;8.25;;;5.03;;
70385;SDS011;57804;55.650;37.500;2022-07-10T12:43:38;10.52;;;5.18;;
70385;SDS011;57804;55.650;37.500;2022-07-10T12:51:49;8.38;;;4.97;;
70385;SDS011;57804;55.650;37.500;2022-07-10T12:54:33;10.07;;;4.70;;
70385;SDS011;57804;55.650;37.500;2022-07-10T12:57:01;7.63;;;4.78;;
70385;SDS011;57804;55.650;37.500;2022-07-10T12:59:28;7.47;;;4.38;;
70385;SDS011;57804;55.650;37.500;2022-07-10T13:01:55;8.25;;;4.53;;
70385;SDS011;57804;55.650;37.500;2022-07-10T13:04:24;7.82;;;4.80;;
70385;SDS011;57804;55.650;37.500;2022-07-10T13:06:56;8.85;;;5.45;;
70385;SDS011;57804;55.650;37.500;2022-07-10T13:09:39;7.80;;;4.85;;
70385;SDS011;57804;55.650;37.500;2022-07-10T13:12:05;7.72;;;5.28;;
70385;SDS011;57804;55.650;37.500;2022-07-10T13:14:32;9.27;;;5.55;;
70385;SDS011;57804;55.650;37.500;2022-07-10T13:16:58;7.63;;;4.60;;
70385;SDS011;57804;55.650;37.500;2022-07-10T13:19:24;9.20;;;5.22;;
70385;SDS011;57804;55.650;37.500;2022-07-10T13:21:50;7.57;;;5.22;;
70385;SDS011;57804;55.650;37.500;2022-07-10T13:24:16;11.00;;;4.85;;
70385;SDS011;57804;55.650;37.500;2022-07-10T13:26:42;8.85;;;5.18;;
70385;SDS011;57804;55.650;37.500;2022-07-10T13:29:08;8.18;;;4.60;;
70385;SDS011;57804;55.650;37.500;2022-07-10T13:31:34;8.57;;;4.80;;
70385;SDS011;57804;55.650;37.500;2022-07-10T13:34:01;7.07;;;4.53;;
70385;SDS011;57804;55.650;37.500;2022-07-10T13:36:27;8.38;;;4.65;;
70385;SDS011;57804;55.650;37.500;2022-07-10T13:38:56;8.18;;;4.93;;
70385;SDS011;57804;55.650;37.500;2022-07-10T13:41:23;10.18;;;4.65;;
70385;SDS011;57804;55.650;37.500;2022-07-10T13:43:49;11.13;;;5.10;;
70385;SDS011;57804;55.650;37.500;2022-07-10T13:46:15;8.20;;;4.93;;
70385;SDS011;57804;55.650;37.500;2022-07-10T13:48:42;9.55;;;4.78;;
70385;SDS011;57804;55.650;37.500;2022-07-10T13:51:08;8.30;;;5.20;;
70385;SDS011;57804;55.650;37.500;2022-07-10T13:53:34;11.90;;;4.88;;
70385;SDS011;57804;55.650;37.500;2022-07-10T13:56:01;9.07;;;4.95;;
70385;SDS011;57804;55.650;37.500;2022-07-10T13:58:29;8.10;;;4.93;;
70385;SDS011;57804;55.650;37.500;2022-07-10T14:00:56;9.02;;;4.82;;
70385;SDS011;57804;55.650;37.500;2022-07-10T14:03:25;9.88;;;5.43;;
70385;SDS011;57804;55.650;37.500;2022-07-10T14:05:51;9.02;;;5.28;;
70385;SDS011;57804;55.650;37.500;2022-07-10T14:08:18;8.43;;;5.07;;
70385;SDS011;57804;55.650;37.500;2022-07-10T14:10:44;9.45;;;4.78;;
70385;SDS011;57804;55.650;37.500;2022-07-10T14:13:11;10.52;;;5.13;;
70385;SDS011;57804;55.650;37.500;2022-07-10T14:15:37;8.93;;;5.13;;
70385;SDS011;57804;55.650;37.500;2022-07-10T14:18:04;9.15;;;5.30;;
70385;SDS011;57804;55.650;37.500;2022-07-10T14:20:30;9.50;;;5.28;;
70385;SDS011;57804;55.650;37.500;2022-07-10T14:23:20;11.82;;;5.03;;
70385;SDS011;57804;55.650;37.500;2022-07-10T14:25:46;9.75;;;5.40;;
70385;SDS011;57804;55.650;37.500;2022-07-10T14:28:13;9.50;;;4.70;;
70385;SDS011;57804;55.650;37.500;2022-07-10T14:30:42;11.30;;;4.50;;
70385;SDS011;57804;55.650;37.500;2022-07-10T14:33:09;9.35;;;4.28;;
70385;SDS011;57804;55.650;37.500;2022-07-10T14:35:35;12.73;;;4.40;;
70385;SDS011;57804;55.650;37.500;2022-07-10T14:38:01;10.18;;;3.75;;
70385;SDS011;57804;55.650;37.500;2022-07-10T14:40:27;10.95;;;4.53;;
70385;SDS011;57804;55.650;37.500;2022-07-10T14:42:54;8.70;;;4.25;;
70385;SDS011;57804;55.650;37.500;2022-07-10T14:45:22;10.15;;;4.63;;
70385;SDS011;57804;55.650;37.500;2022-07-10T14:47:50;8.93;;;4.60;;
70385;SDS011;57804;55.650;37.500;2022-07-10T14:50:16;11.65;;;5.25;;
70385;SDS011;57804;55.650;37.500;2022-07-10T14:52:43;8.95;;;3.90;;
70385;SDS011;57804;55.650;37.500;2022-07-10T14:55:09;7.03;;;3.65;;
70385;SDS011;57804;55.650;37.500;2022-07-10T14:57:36;9.95;;;4.15;;
70385;SDS011;57804;55.650;37.500;2022-07-10T15:00:02;8.32;;;4.03;;
70385;SDS011;57804;55.650;37.500;2022-07-10T15:02:29;7.40;;;3.40;;
70385;SDS011;57804;55.650;37.500;2022-07-10T15:04:55;8.57;;;3.83;;
70385;SDS011;57804;55.650;37.500;2022-07-10T15:07:21;8.88;;;3.42;;
70385;SDS011;57804;55.650;37.500;2022-07-10T15:09:47;6.65;;;3.47;;
70385;SDS011;57804;55.650;37.500;2022-07-10T15:12:13;8.35;;;3.50;;
70385;SDS011;57804;55.650;37.500;2022-07-10T15:14:39;14.50;;;3.28;;
70385;SDS011;57804;55.650;37.500;2022-07-10T15:17:05;8.63;;;3.97;;
70385;SDS011;57804;55.650;37.500;2022-07-10T15:19:31;8.07;;;3.70;;
70385;SDS011;57804;55.650;37.500;2022-07-10T15:21:57;7.47;;;3.72;;